sensor_id;sensor_type;location;lat;lon;timestamp;temperature;humidity
47338;DHT22;33069;51.970;5.892;2024-01-15T00:00:19;1.60;90.10
47338;DHT22;33069;51.970;5.892;2024-01-15T00:02:45;1.60;90.10
47338;DHT22;33069;51.970;5.892;2024-01-15T00:05:10;1.70;90.20
47338;DHT22;33069;51.970;5.892;2024-01-15T00:07:36;1.70;90.20
47338;DHT22;33069;51.970;5.892;2024-01-15T00:10:02;1.60;90.20
47338;DHT22;33069;51.970;5.892;2024-01-15T00:12:28;1.70;90.20
47338;DHT22;33069;51.970;5.892;2024-01-15T00:14:54;1.70;90.20
47338;DHT22;33069;51.970;5.892;2024-01-15T00:17:20;1.60;90.20
47338;DHT22;33069;51.970;5.892;2024-01-15T00:19:45;1.60;90.20
47338;DHT22;33069;51.970;5.892;2024-01-15T00:22:11;1.70;90.20
47338;DHT22;33069;51.970;5.892;2024-01-15T00:24:37;1.60;90.10
47338;DHT22;33069;51.970;5.892;2024-01-15T00:27:02;1.60;90.10
47338;DHT22;33069;51.970;5.892;2024-01-15T00:29:28;1.50;90.00
47338;DHT22;33069;51.970;5.892;2024-01-15T00:31:54;1.50;90.00
47338;DHT22;33069;51.970;5.892;2024-01-15T00:34:20;1.40;89.90
47338;DHT22;33069;51.970;5.892;2024-01-15T00:36:45;1.50;89.90
47338;DHT22;33069;51.970;5.892;2024-01-15T00:39:11;1.50;89.90
47338;DHT22;33069;51.970;5.892;2024-01-15T00:41:37;1.40;89.80
47338;DHT22;33069;51.970;5.892;2024-01-15T00:44:03;1.30;89.80
47338;DHT22;33069;51.970;5.892;2024-01-15T00:46:29;1.30;89.80
47338;DHT22;33069;51.970;5.892;2024-01-15T00:48:54;1.30;89.80
47338;DHT22;33069;51.970;5.892;2024-01-15T00:51:20;1.30;89.70
47338;DHT22;33069;51.970;5.892;2024-01-15T00:53:46;1.30;89.70
47338;DHT22;33069;51.970;5.892;2024-01-15T00:56:11;1.30;89.70
47338;DHT22;33069;51.970;5.892;2024-01-15T00:58:37;1.20;89.70
47338;DHT22;33069;51.970;5.892;2024-01-15T01:01:03;1.20;89.70
47338;DHT22;33069;51.970;5.892;2024-01-15T01:03:28;1.20;89.70
47338;DHT22;33069;51.970;5.892;2024-01-15T01:05:54;1.20;89.80
47338;DHT22;33069;51.970;5.892;2024-01-15T01:08:20;1.20;89.70
47338;DHT22;33069;51.970;5.892;2024-01-15T01:10:46;1.10;89.70
47338;DHT22;33069;51.970;5.892;2024-01-15T01:13:11;1.10;89.70
47338;DHT22;33069;51.970;5.892;2024-01-15T01:15:37;1.10;89.70
47338;DHT22;33069;51.970;5.892;2024-01-15T01:18:04;1.10;89.70
47338;DHT22;33069;51.970;5.892;2024-01-15T01:20:30;1.10;89.80
47338;DHT22;33069;51.970;5.892;2024-01-15T01:22:56;1.00;89.70
47338;DHT22;33069;51.970;5.892;2024-01-15T01:25:21;1.10;89.70
47338;DHT22;33069;51.970;5.892;2024-01-15T01:27:47;1.20;89.70
47338;DHT22;33069;51.970;5.892;2024-01-15T01:30:13;1.10;89.60
47338;DHT22;33069;51.970;5.892;2024-01-15T01:32:39;1.10;89.60
47338;DHT22;33069;51.970;5.892;2024-01-15T01:35:05;1.20;89.70
47338;DHT22;33069;51.970;5.892;2024-01-15T01:37:30;1.20;89.50
47338;DHT22;33069;51.970;5.892;2024-01-15T01:39:56;1.20;89.50
47338;DHT22;33069;51.970;5.892;2024-01-15T01:42:22;1.10;89.40
47338;DHT22;33069;51.970;5.892;2024-01-15T01:44:48;1.10;89.40
47338;DHT22;33069;51.970;5.892;2024-01-15T01:47:14;1.10;89.40
47338;DHT22;33069;51.970;5.892;2024-01-15T01:49:41;1.10;89.40
47338;DHT22;33069;51.970;5.892;2024-01-15T01:52:07;1.20;89.40
47338;DHT22;33069;51.970;5.892;2024-01-15T01:54:35;1.10;89.30
47338;DHT22;33069;51.970;5.892;2024-01-15T01:57:03;1.10;89.30
47338;DHT22;33069;51.970;5.892;2024-01-15T01:59:30;1.10;89.30
47338;DHT22;33069;51.970;5.892;2024-01-15T02:01:57;1.10;89.20
47338;DHT22;33069;51.970;5.892;2024-01-15T02:04:24;1.10;89.20
47338;DHT22;33069;51.970;5.892;2024-01-15T02:06:51;1.10;89.10
47338;DHT22;33069;51.970;5.892;2024-01-15T02:09:20;1.10;89.00
47338;DHT22;33069;51.970;5.892;2024-01-15T02:11:49;1.10;89.00
47338;DHT22;33069;51.970;5.892;2024-01-15T02:14:15;1.00;88.80
47338;DHT22;33069;51.970;5.892;2024-01-15T02:16:41;1.00;88.80
47338;DHT22;33069;51.970;5.892;2024-01-15T02:19:06;1.00;88.70
47338;DHT22;33069;51.970;5.892;2024-01-15T02:21:32;1.10;88.60
47338;DHT22;33069;51.970;5.892;2024-01-15T02:23:58;1.00;88.50
47338;DHT22;33069;51.970;5.892;2024-01-15T02:26:24;1.00;88.50
47338;DHT22;33069;51.970;5.892;2024-01-15T02:28:51;1.00;88.40
47338;DHT22;33069;51.970;5.892;2024-01-15T02:31:17;1.00;88.30
47338;DHT22;33069;51.970;5.892;2024-01-15T02:33:43;1.00;88.20
47338;DHT22;33069;51.970;5.892;2024-01-15T02:36:10;1.00;88.20
47338;DHT22;33069;51.970;5.892;2024-01-15T02:38:36;1.00;88.10
47338;DHT22;33069;51.970;5.892;2024-01-15T02:41:01;1.10;88.00
47338;DHT22;33069;51.970;5.892;2024-01-15T02:43:27;1.10;87.80
47338;DHT22;33069;51.970;5.892;2024-01-15T02:45:53;1.20;87.60
47338;DHT22;33069;51.970;5.892;2024-01-15T02:48:18;1.30;87.60
47338;DHT22;33069;51.970;5.892;2024-01-15T02:50:44;1.30;87.40
47338;DHT22;33069;51.970;5.892;2024-01-15T02:53:10;1.30;87.20
47338;DHT22;33069;51.970;5.892;2024-01-15T02:55:35;1.30;87.30
47338;DHT22;33069;51.970;5.892;2024-01-15T02:58:01;1.40;87.20
47338;DHT22;33069;51.970;5.892;2024-01-15T03:00:27;1.40;87.10
47338;DHT22;33069;51.970;5.892;2024-01-15T03:02:53;1.40;87.50
47338;DHT22;33069;51.970;5.892;2024-01-15T03:05:18;1.40;87.40
47338;DHT22;33069;51.970;5.892;2024-01-15T03:07:45;1.30;87.50
47338;DHT22;33069;51.970;5.892;2024-01-15T03:10:11;1.30;87.70
47338;DHT22;33069;51.970;5.892;2024-01-15T03:12:36;1.40;87.90
47338;DHT22;33069;51.970;5.892;2024-01-15T03:15:02;1.30;88.00
47338;DHT22;33069;51.970;5.892;2024-01-15T03:17:28;1.30;87.90
47338;DHT22;33069;51.970;5.892;2024-01-15T03:19:54;1.20;88.00
47338;DHT22;33069;51.970;5.892;2024-01-15T03:22:19;1.30;88.10
47338;DHT22;33069;51.970;5.892;2024-01-15T03:24:45;1.20;88.00
47338;DHT22;33069;51.970;5.892;2024-01-15T03:27:11;1.20;88.00
47338;DHT22;33069;51.970;5.892;2024-01-15T03:29:36;1.20;88.00
47338;DHT22;33069;51.970;5.892;2024-01-15T03:32:02;1.30;88.00
47338;DHT22;33069;51.970;5.892;2024-01-15T03:34:28;1.20;87.80
47338;DHT22;33069;51.970;5.892;2024-01-15T03:36:54;1.10;87.80
47338;DHT22;33069;51.970;5.892;2024-01-15T03:39:20;1.10;87.70
47338;DHT22;33069;51.970;5.892;2024-01-15T03:41:45;1.10;87.80
47338;DHT22;33069;51.970;5.892;2024-01-15T03:44:11;1.10;87.80
47338;DHT22;33069;51.970;5.892;2024-01-15T03:46:37;1.10;87.80
47338;DHT22;33069;51.970;5.892;2024-01-15T03:49:03;1.10;87.90
47338;DHT22;33069;51.970;5.892;2024-01-15T03:51:28;1.10;87.90
47338;DHT22;33069;51.970;5.892;2024-01-15T03:53:54;1.10;87.90
47338;DHT22;33069;51.970;5.892;2024-01-15T03:56:20;1.10;87.90
47338;DHT22;33069;51.970;5.892;2024-01-15T03:58:45;1.10;87.90
47338;DHT22;33069;51.970;5.892;2024-01-15T04:01:11;1.10;87.90
47338;DHT22;33069;51.970;5.892;2024-01-15T04:03:37;1.00;88.00
47338;DHT22;33069;51.970;5.892;2024-01-15T04:06:04;1.00;88.10
47338;DHT22;33069;51.970;5.892;2024-01-15T04:08:29;1.10;88.20
47338;DHT22;33069;51.970;5.892;2024-01-15T04:10:55;1.10;88.30
47338;DHT22;33069;51.970;5.892;2024-01-15T04:13:21;1.10;88.30
47338;DHT22;33069;51.970;5.892;2024-01-15T04:15:47;1.00;88.40
47338;DHT22;33069;51.970;5.892;2024-01-15T04:18:13;1.20;88.40
47338;DHT22;33069;51.970;5.892;2024-01-15T04:20:39;1.20;88.40
47338;DHT22;33069;51.970;5.892;2024-01-15T04:23:05;1.10;88.40
47338;DHT22;33069;51.970;5.892;2024-01-15T04:25:30;1.20;88.50
47338;DHT22;33069;51.970;5.892;2024-01-15T04:27:56;1.20;88.50
47338;DHT22;33069;51.970;5.892;2024-01-15T04:30:22;1.20;88.50
47338;DHT22;33069;51.970;5.892;2024-01-15T04:32:48;1.30;88.60
47338;DHT22;33069;51.970;5.892;2024-01-15T04:35:13;1.20;88.60
47338;DHT22;33069;51.970;5.892;2024-01-15T04:37:40;1.20;88.50
47338;DHT22;33069;51.970;5.892;2024-01-15T04:40:06;1.20;88.50
47338;DHT22;33069;51.970;5.892;2024-01-15T04:42:32;1.20;88.50
47338;DHT22;33069;51.970;5.892;2024-01-15T04:44:59;1.20;88.50
47338;DHT22;33069;51.970;5.892;2024-01-15T04:47:25;1.20;88.50
47338;DHT22;33069;51.970;5.892;2024-01-15T04:49:51;1.10;88.60
47338;DHT22;33069;51.970;5.892;2024-01-15T04:52:17;1.00;88.70
47338;DHT22;33069;51.970;5.892;2024-01-15T04:54:42;0.90;88.80
47338;DHT22;33069;51.970;5.892;2024-01-15T04:57:08;1.00;89.00
47338;DHT22;33069;51.970;5.892;2024-01-15T04:59:34;1.00;89.10
47338;DHT22;33069;51.970;5.892;2024-01-15T05:02:00;1.00;89.10
47338;DHT22;33069;51.970;5.892;2024-01-15T05:04:26;0.90;89.10
47338;DHT22;33069;51.970;5.892;2024-01-15T05:06:53;1.00;89.20
47338;DHT22;33069;51.970;5.892;2024-01-15T05:09:19;0.90;89.10
47338;DHT22;33069;51.970;5.892;2024-01-15T05:11:45;1.10;89.20
47338;DHT22;33069;51.970;5.892;2024-01-15T05:14:11;1.10;89.10
47338;DHT22;33069;51.970;5.892;2024-01-15T05:16:46;1.10;89.00
47338;DHT22;33069;51.970;5.892;2024-01-15T05:19:12;1.00;88.90
47338;DHT22;33069;51.970;5.892;2024-01-15T05:21:38;1.00;88.90
47338;DHT22;33069;51.970;5.892;2024-01-15T05:24:03;1.00;88.80
47338;DHT22;33069;51.970;5.892;2024-01-15T05:26:29;1.00;88.80
47338;DHT22;33069;51.970;5.892;2024-01-15T05:28:55;1.00;88.80
47338;DHT22;33069;51.970;5.892;2024-01-15T05:31:21;1.10;88.80
47338;DHT22;33069;51.970;5.892;2024-01-15T05:33:47;1.00;88.80
47338;DHT22;33069;51.970;5.892;2024-01-15T05:36:12;1.10;88.80
47338;DHT22;33069;51.970;5.892;2024-01-15T05:38:38;1.20;88.80
47338;DHT22;33069;51.970;5.892;2024-01-15T05:41:05;1.20;88.90
47338;DHT22;33069;51.970;5.892;2024-01-15T05:43:31;1.10;88.80
47338;DHT22;33069;51.970;5.892;2024-01-15T05:45:57;1.20;88.90
47338;DHT22;33069;51.970;5.892;2024-01-15T05:48:23;1.20;89.00
47338;DHT22;33069;51.970;5.892;2024-01-15T05:50:49;1.10;89.00
47338;DHT22;33069;51.970;5.892;2024-01-15T05:53:15;1.10;89.10
47338;DHT22;33069;51.970;5.892;2024-01-15T05:55:40;1.00;89.20
47338;DHT22;33069;51.970;5.892;2024-01-15T05:58:06;1.00;89.30
47338;DHT22;33069;51.970;5.892;2024-01-15T06:00:32;1.20;89.40
47338;DHT22;33069;51.970;5.892;2024-01-15T06:03:01;1.20;89.50
47338;DHT22;33069;51.970;5.892;2024-01-15T06:05:27;1.20;89.50
47338;DHT22;33069;51.970;5.892;2024-01-15T06:07:53;1.30;89.60
47338;DHT22;33069;51.970;5.892;2024-01-15T06:10:19;1.30;89.50
47338;DHT22;33069;51.970;5.892;2024-01-15T06:12:44;1.20;89.60
47338;DHT22;33069;51.970;5.892;2024-01-15T06:15:10;1.30;89.60
47338;DHT22;33069;51.970;5.892;2024-01-15T06:17:37;1.30;89.60
47338;DHT22;33069;51.970;5.892;2024-01-15T06:20:03;1.30;89.60
47338;DHT22;33069;51.970;5.892;2024-01-15T06:22:29;1.30;89.60
47338;DHT22;33069;51.970;5.892;2024-01-15T06:24:55;1.30;89.60
47338;DHT22;33069;51.970;5.892;2024-01-15T06:27:21;1.30;89.60
47338;DHT22;33069;51.970;5.892;2024-01-15T06:29:47;1.30;89.70
47338;DHT22;33069;51.970;5.892;2024-01-15T06:32:13;1.30;89.70
47338;DHT22;33069;51.970;5.892;2024-01-15T06:34:39;1.30;89.70
47338;DHT22;33069;51.970;5.892;2024-01-15T06:37:05;1.30;89.70
47338;DHT22;33069;51.970;5.892;2024-01-15T06:39:31;1.30;89.70
47338;DHT22;33069;51.970;5.892;2024-01-15T06:41:56;1.30;89.80
47338;DHT22;33069;51.970;5.892;2024-01-15T06:44:22;1.30;89.80
47338;DHT22;33069;51.970;5.892;2024-01-15T06:46:48;1.20;89.80
47338;DHT22;33069;51.970;5.892;2024-01-15T06:49:14;1.20;89.80
47338;DHT22;33069;51.970;5.892;2024-01-15T06:51:40;1.00;89.80
47338;DHT22;33069;51.970;5.892;2024-01-15T06:54:06;0.90;89.90
47338;DHT22;33069;51.970;5.892;2024-01-15T06:56:32;0.80;89.90
47338;DHT22;33069;51.970;5.892;2024-01-15T06:58:58;0.80;90.00
47338;DHT22;33069;51.970;5.892;2024-01-15T07:01:23;0.70;90.10
47338;DHT22;33069;51.970;5.892;2024-01-15T07:03:49;0.80;90.10
47338;DHT22;33069;51.970;5.892;2024-01-15T07:06:15;0.70;90.20
47338;DHT22;33069;51.970;5.892;2024-01-15T07:08:41;0.80;90.30
47338;DHT22;33069;51.970;5.892;2024-01-15T07:11:07;0.80;90.30
47338;DHT22;33069;51.970;5.892;2024-01-15T07:13:33;0.80;90.40
47338;DHT22;33069;51.970;5.892;2024-01-15T07:15:58;0.80;90.40
47338;DHT22;33069;51.970;5.892;2024-01-15T07:18:24;0.80;90.50
47338;DHT22;33069;51.970;5.892;2024-01-15T07:20:51;0.80;90.60
47338;DHT22;33069;51.970;5.892;2024-01-15T07:23:16;0.80;90.60
47338;DHT22;33069;51.970;5.892;2024-01-15T07:25:43;0.80;90.70
47338;DHT22;33069;51.970;5.892;2024-01-15T07:28:09;0.90;90.70
47338;DHT22;33069;51.970;5.892;2024-01-15T07:30:35;0.90;90.80
47338;DHT22;33069;51.970;5.892;2024-01-15T07:33:00;0.80;90.70
47338;DHT22;33069;51.970;5.892;2024-01-15T07:35:26;0.90;90.80
47338;DHT22;33069;51.970;5.892;2024-01-15T07:37:52;0.90;90.80
47338;DHT22;33069;51.970;5.892;2024-01-15T07:40:18;0.90;90.80
47338;DHT22;33069;51.970;5.892;2024-01-15T07:42:43;0.90;90.80
47338;DHT22;33069;51.970;5.892;2024-01-15T07:45:10;0.80;90.80
47338;DHT22;33069;51.970;5.892;2024-01-15T07:47:36;0.80;90.80
47338;DHT22;33069;51.970;5.892;2024-01-15T07:50:03;0.80;90.90
47338;DHT22;33069;51.970;5.892;2024-01-15T07:52:30;0.80;90.90
47338;DHT22;33069;51.970;5.892;2024-01-15T07:54:56;0.80;90.90
47338;DHT22;33069;51.970;5.892;2024-01-15T07:57:22;0.90;91.00
47338;DHT22;33069;51.970;5.892;2024-01-15T07:59:48;0.80;91.00
47338;DHT22;33069;51.970;5.892;2024-01-15T08:02:14;0.70;91.00
47338;DHT22;33069;51.970;5.892;2024-01-15T08:04:40;0.80;91.00
47338;DHT22;33069;51.970;5.892;2024-01-15T08:07:05;0.80;91.00
47338;DHT22;33069;51.970;5.892;2024-01-15T08:09:33;0.80;91.00
47338;DHT22;33069;51.970;5.892;2024-01-15T08:11:59;0.80;91.00
47338;DHT22;33069;51.970;5.892;2024-01-15T08:14:25;0.80;91.10
47338;DHT22;33069;51.970;5.892;2024-01-15T08:16:50;0.70;91.10
47338;DHT22;33069;51.970;5.892;2024-01-15T08:19:16;0.80;91.10
47338;DHT22;33069;51.970;5.892;2024-01-15T08:21:42;0.80;91.10
47338;DHT22;33069;51.970;5.892;2024-01-15T08:24:08;0.70;91.10
47338;DHT22;33069;51.970;5.892;2024-01-15T08:26:33;0.70;91.00
47338;DHT22;33069;51.970;5.892;2024-01-15T08:29:00;0.80;91.10
47338;DHT22;33069;51.970;5.892;2024-01-15T08:31:25;0.80;91.10
47338;DHT22;33069;51.970;5.892;2024-01-15T08:33:51;0.80;91.10
47338;DHT22;33069;51.970;5.892;2024-01-15T08:36:17;0.90;91.10
47338;DHT22;33069;51.970;5.892;2024-01-15T08:38:43;0.90;91.10
47338;DHT22;33069;51.970;5.892;2024-01-15T08:41:10;1.00;91.10
47338;DHT22;33069;51.970;5.892;2024-01-15T08:43:36;0.90;91.00
47338;DHT22;33069;51.970;5.892;2024-01-15T08:46:02;0.90;91.10
47338;DHT22;33069;51.970;5.892;2024-01-15T08:48:28;0.90;91.00
47338;DHT22;33069;51.970;5.892;2024-01-15T08:50:54;0.90;91.00
47338;DHT22;33069;51.970;5.892;2024-01-15T08:53:20;0.80;91.00
47338;DHT22;33069;51.970;5.892;2024-01-15T08:55:47;0.90;91.00
47338;DHT22;33069;51.970;5.892;2024-01-15T08:58:13;1.00;91.00
47338;DHT22;33069;51.970;5.892;2024-01-15T09:00:39;0.90;91.00
47338;DHT22;33069;51.970;5.892;2024-01-15T09:03:05;0.90;91.00
47338;DHT22;33069;51.970;5.892;2024-01-15T09:05:31;0.90;91.00
47338;DHT22;33069;51.970;5.892;2024-01-15T09:07:57;0.80;91.00
47338;DHT22;33069;51.970;5.892;2024-01-15T09:10:23;0.80;91.00
47338;DHT22;33069;51.970;5.892;2024-01-15T09:12:49;0.90;91.10
47338;DHT22;33069;51.970;5.892;2024-01-15T09:15:15;0.80;91.00
47338;DHT22;33069;51.970;5.892;2024-01-15T09:17:41;0.80;91.00
47338;DHT22;33069;51.970;5.892;2024-01-15T09:20:08;0.90;91.10
47338;DHT22;33069;51.970;5.892;2024-01-15T09:22:34;0.90;91.10
47338;DHT22;33069;51.970;5.892;2024-01-15T09:25:00;1.00;91.10
47338;DHT22;33069;51.970;5.892;2024-01-15T09:27:26;1.00;91.10
47338;DHT22;33069;51.970;5.892;2024-01-15T09:29:52;1.00;91.10
47338;DHT22;33069;51.970;5.892;2024-01-15T09:32:18;1.00;91.00
47338;DHT22;33069;51.970;5.892;2024-01-15T09:34:45;0.90;91.00
47338;DHT22;33069;51.970;5.892;2024-01-15T09:37:12;1.00;91.00
47338;DHT22;33069;51.970;5.892;2024-01-15T09:39:37;1.00;91.00
47338;DHT22;33069;51.970;5.892;2024-01-15T09:42:03;1.00;91.00
47338;DHT22;33069;51.970;5.892;2024-01-15T09:44:29;1.20;91.00
47338;DHT22;33069;51.970;5.892;2024-01-15T09:46:57;1.10;91.00
47338;DHT22;33069;51.970;5.892;2024-01-15T09:49:23;1.20;91.00
47338;DHT22;33069;51.970;5.892;2024-01-15T09:51:49;1.20;90.90
47338;DHT22;33069;51.970;5.892;2024-01-15T09:54:16;1.20;90.90
47338;DHT22;33069;51.970;5.892;2024-01-15T09:56:45;1.20;90.80
47338;DHT22;33069;51.970;5.892;2024-01-15T09:59:18;1.20;90.70
47338;DHT22;33069;51.970;5.892;2024-01-15T10:01:44;1.10;90.70
47338;DHT22;33069;51.970;5.892;2024-01-15T10:04:11;1.20;90.60
47338;DHT22;33069;51.970;5.892;2024-01-15T10:06:38;1.00;90.50
47338;DHT22;33069;51.970;5.892;2024-01-15T10:09:05;1.00;90.50
47338;DHT22;33069;51.970;5.892;2024-01-15T10:11:33;1.00;90.50
47338;DHT22;33069;51.970;5.892;2024-01-15T10:13:59;1.10;90.50
47338;DHT22;33069;51.970;5.892;2024-01-15T10:16:25;1.10;90.40
47338;DHT22;33069;51.970;5.892;2024-01-15T10:18:51;1.30;90.50
47338;DHT22;33069;51.970;5.892;2024-01-15T10:21:17;1.30;90.50
47338;DHT22;33069;51.970;5.892;2024-01-15T10:23:43;1.30;90.40
47338;DHT22;33069;51.970;5.892;2024-01-15T10:26:09;1.30;90.30
47338;DHT22;33069;51.970;5.892;2024-01-15T10:28:37;1.40;90.30
47338;DHT22;33069;51.970;5.892;2024-01-15T10:31:03;1.40;90.20
47338;DHT22;33069;51.970;5.892;2024-01-15T10:33:30;1.50;90.10
47338;DHT22;33069;51.970;5.892;2024-01-15T10:36:00;1.40;89.90
47338;DHT22;33069;51.970;5.892;2024-01-15T10:38:26;1.40;89.80
47338;DHT22;33069;51.970;5.892;2024-01-15T10:40:55;1.40;89.70
47338;DHT22;33069;51.970;5.892;2024-01-15T10:43:22;1.40;89.70
47338;DHT22;33069;51.970;5.892;2024-01-15T10:45:49;1.50;89.80
47338;DHT22;33069;51.970;5.892;2024-01-15T10:48:17;1.50;89.70
47338;DHT22;33069;51.970;5.892;2024-01-15T10:50:44;1.60;89.80
47338;DHT22;33069;51.970;5.892;2024-01-15T10:53:12;1.70;89.80
47338;DHT22;33069;51.970;5.892;2024-01-15T10:55:38;1.70;89.70
47338;DHT22;33069;51.970;5.892;2024-01-15T10:58:07;1.70;89.70
47338;DHT22;33069;51.970;5.892;2024-01-15T11:00:37;1.70;89.70
47338;DHT22;33069;51.970;5.892;2024-01-15T11:03:06;1.70;89.50
47338;DHT22;33069;51.970;5.892;2024-01-15T11:05:43;1.60;89.30
47338;DHT22;33069;51.970;5.892;2024-01-15T11:08:09;1.40;89.10
47338;DHT22;33069;51.970;5.892;2024-01-15T11:10:46;1.30;89.20
47338;DHT22;33069;51.970;5.892;2024-01-15T11:13:23;1.30;89.40
47338;DHT22;33069;51.970;5.892;2024-01-15T11:16:10;1.30;89.50
47338;DHT22;33069;51.970;5.892;2024-01-15T11:18:37;1.40;89.70
47338;DHT22;33069;51.970;5.892;2024-01-15T11:23:44;1.40;89.70
47338;DHT22;33069;51.970;5.892;2024-01-15T11:26:30;1.40;89.70
47338;DHT22;33069;51.970;5.892;2024-01-15T11:28:58;1.50;89.80
47338;DHT22;33069;51.970;5.892;2024-01-15T11:34:06;1.60;89.80
47338;DHT22;33069;51.970;5.892;2024-01-15T11:41:59;1.40;89.80
47338;DHT22;33069;51.970;5.892;2024-01-15T11:44:26;1.50;89.90
47338;DHT22;33069;51.970;5.892;2024-01-15T11:47:03;1.60;90.10
47338;DHT22;33069;51.970;5.892;2024-01-15T11:50:03;1.60;89.90
47338;DHT22;33069;51.970;5.892;2024-01-15T11:52:36;1.70;89.70
47338;DHT22;33069;51.970;5.892;2024-01-15T12:00:06;1.80;88.90
47338;DHT22;33069;51.970;5.892;2024-01-15T12:02:33;1.80;88.90
47338;DHT22;33069;51.970;5.892;2024-01-15T12:04:59;1.80;88.90
47338;DHT22;33069;51.970;5.892;2024-01-15T12:07:25;1.80;89.10
47338;DHT22;33069;51.970;5.892;2024-01-15T12:09:51;1.80;89.10
47338;DHT22;33069;51.970;5.892;2024-01-15T12:15:08;2.00;89.10
47338;DHT22;33069;51.970;5.892;2024-01-15T12:17:35;2.00;89.00
47338;DHT22;33069;51.970;5.892;2024-01-15T12:20:01;2.00;88.90
47338;DHT22;33069;51.970;5.892;2024-01-15T12:22:26;2.10;88.80
47338;DHT22;33069;51.970;5.892;2024-01-15T12:24:53;2.20;88.90
47338;DHT22;33069;51.970;5.892;2024-01-15T12:27:20;2.20;88.90
47338;DHT22;33069;51.970;5.892;2024-01-15T12:29:46;2.30;88.80
47338;DHT22;33069;51.970;5.892;2024-01-15T12:32:12;2.40;88.60
47338;DHT22;33069;51.970;5.892;2024-01-15T12:34:38;2.50;88.40
47338;DHT22;33069;51.970;5.892;2024-01-15T12:37:04;2.60;88.20
47338;DHT22;33069;51.970;5.892;2024-01-15T12:39:29;2.40;87.40
47338;DHT22;33069;51.970;5.892;2024-01-15T12:41:55;2.60;87.30
47338;DHT22;33069;51.970;5.892;2024-01-15T12:44:21;2.50;86.90
47338;DHT22;33069;51.970;5.892;2024-01-15T12:46:47;2.40;87.10
47338;DHT22;33069;51.970;5.892;2024-01-15T12:49:13;2.30;87.10
47338;DHT22;33069;51.970;5.892;2024-01-15T12:51:39;2.10;87.30
47338;DHT22;33069;51.970;5.892;2024-01-15T12:54:05;1.90;87.50
47338;DHT22;33069;51.970;5.892;2024-01-15T12:56:30;1.90;87.80
47338;DHT22;33069;51.970;5.892;2024-01-15T12:58:56;2.00;88.00
47338;DHT22;33069;51.970;5.892;2024-01-15T13:01:22;2.00;88.00
47338;DHT22;33069;51.970;5.892;2024-01-15T13:03:47;2.00;88.00
47338;DHT22;33069;51.970;5.892;2024-01-15T13:06:13;1.90;88.00
47338;DHT22;33069;51.970;5.892;2024-01-15T13:08:39;1.90;88.00
47338;DHT22;33069;51.970;5.892;2024-01-15T13:11:04;2.00;88.00
47338;DHT22;33069;51.970;5.892;2024-01-15T13:13:31;2.00;88.00
47338;DHT22;33069;51.970;5.892;2024-01-15T13:16:00;2.30;88.10
47338;DHT22;33069;51.970;5.892;2024-01-15T13:18:25;2.30;87.40
47338;DHT22;33069;51.970;5.892;2024-01-15T13:20:51;2.20;86.60
47338;DHT22;33069;51.970;5.892;2024-01-15T13:23:17;2.00;86.10
47338;DHT22;33069;51.970;5.892;2024-01-15T13:25:43;1.90;85.80
47338;DHT22;33069;51.970;5.892;2024-01-15T13:28:08;2.00;86.10
47338;DHT22;33069;51.970;5.892;2024-01-15T13:30:34;1.90;85.00
47338;DHT22;33069;51.970;5.892;2024-01-15T13:33:00;1.90;85.10
47338;DHT22;33069;51.970;5.892;2024-01-15T13:35:30;1.90;84.70
47338;DHT22;33069;51.970;5.892;2024-01-15T13:37:55;1.90;84.70
47338;DHT22;33069;51.970;5.892;2024-01-15T13:40:21;1.90;84.90
47338;DHT22;33069;51.970;5.892;2024-01-15T13:42:47;1.90;84.90
47338;DHT22;33069;51.970;5.892;2024-01-15T13:45:14;2.00;85.00
47338;DHT22;33069;51.970;5.892;2024-01-15T13:47:42;1.80;85.10
47338;DHT22;33069;51.970;5.892;2024-01-15T13:50:11;1.80;85.30
47338;DHT22;33069;51.970;5.892;2024-01-15T13:52:37;1.80;85.10
47338;DHT22;33069;51.970;5.892;2024-01-15T13:55:03;1.80;85.20
47338;DHT22;33069;51.970;5.892;2024-01-15T13:57:29;1.70;85.40
47338;DHT22;33069;51.970;5.892;2024-01-15T13:59:55;1.70;85.80
47338;DHT22;33069;51.970;5.892;2024-01-15T14:02:20;1.60;85.60
47338;DHT22;33069;51.970;5.892;2024-01-15T14:04:47;1.60;85.70
47338;DHT22;33069;51.970;5.892;2024-01-15T14:07:12;1.60;86.00
47338;DHT22;33069;51.970;5.892;2024-01-15T14:09:38;1.60;86.10
47338;DHT22;33069;51.970;5.892;2024-01-15T14:12:04;1.70;86.30
47338;DHT22;33069;51.970;5.892;2024-01-15T14:14:30;1.70;86.30
47338;DHT22;33069;51.970;5.892;2024-01-15T14:16:56;1.80;86.10
47338;DHT22;33069;51.970;5.892;2024-01-15T14:19:22;1.90;85.80
47338;DHT22;33069;51.970;5.892;2024-01-15T14:21:48;1.80;85.80
47338;DHT22;33069;51.970;5.892;2024-01-15T14:24:13;1.90;85.70
47338;DHT22;33069;51.970;5.892;2024-01-15T14:26:40;1.80;85.80
47338;DHT22;33069;51.970;5.892;2024-01-15T14:29:05;1.90;85.90
47338;DHT22;33069;51.970;5.892;2024-01-15T14:31:31;2.00;85.50
47338;DHT22;33069;51.970;5.892;2024-01-15T14:33:58;2.00;85.10
47338;DHT22;33069;51.970;5.892;2024-01-15T14:36:25;2.00;85.00
47338;DHT22;33069;51.970;5.892;2024-01-15T14:38:50;2.10;84.70
47338;DHT22;33069;51.970;5.892;2024-01-15T14:41:16;1.80;84.50
47338;DHT22;33069;51.970;5.892;2024-01-15T14:43:44;1.80;84.70
47338;DHT22;33069;51.970;5.892;2024-01-15T14:46:10;1.80;84.80
47338;DHT22;33069;51.970;5.892;2024-01-15T14:48:36;1.90;85.00
47338;DHT22;33069;51.970;5.892;2024-01-15T14:51:02;1.90;85.00
47338;DHT22;33069;51.970;5.892;2024-01-15T14:53:28;1.90;85.00
47338;DHT22;33069;51.970;5.892;2024-01-15T14:55:54;2.00;85.00
47338;DHT22;33069;51.970;5.892;2024-01-15T14:58:20;1.90;84.90
47338;DHT22;33069;51.970;5.892;2024-01-15T15:00:46;2.00;85.20
47338;DHT22;33069;51.970;5.892;2024-01-15T15:03:11;1.90;85.30
47338;DHT22;33069;51.970;5.892;2024-01-15T15:05:39;2.10;85.70
47338;DHT22;33069;51.970;5.892;2024-01-15T15:08:05;2.10;85.80
47338;DHT22;33069;51.970;5.892;2024-01-15T15:10:37;2.00;85.80
47338;DHT22;33069;51.970;5.892;2024-01-15T15:13:03;1.90;85.90
47338;DHT22;33069;51.970;5.892;2024-01-15T15:15:29;1.90;86.10
47338;DHT22;33069;51.970;5.892;2024-01-15T15:17:55;1.90;86.10
47338;DHT22;33069;51.970;5.892;2024-01-15T15:20:21;1.90;85.90
47338;DHT22;33069;51.970;5.892;2024-01-15T15:22:46;1.70;85.80
47338;DHT22;33069;51.970;5.892;2024-01-15T15:25:12;1.70;85.90
47338;DHT22;33069;51.970;5.892;2024-01-15T15:27:38;1.80;86.00
47338;DHT22;33069;51.970;5.892;2024-01-15T15:30:07;1.70;85.80
47338;DHT22;33069;51.970;5.892;2024-01-15T15:32:32;1.70;85.80
47338;DHT22;33069;51.970;5.892;2024-01-15T15:34:58;1.80;85.70
47338;DHT22;33069;51.970;5.892;2024-01-15T15:37:24;1.70;85.40
47338;DHT22;33069;51.970;5.892;2024-01-15T15:39:49;1.80;85.30
47338;DHT22;33069;51.970;5.892;2024-01-15T15:42:15;1.70;85.50
47338;DHT22;33069;51.970;5.892;2024-01-15T15:44:41;1.70;85.60
47338;DHT22;33069;51.970;5.892;2024-01-15T15:47:12;1.70;85.80
47338;DHT22;33069;51.970;5.892;2024-01-15T15:49:40;1.60;86.10
47338;DHT22;33069;51.970;5.892;2024-01-15T15:52:06;1.50;86.30
47338;DHT22;33069;51.970;5.892;2024-01-15T15:54:32;1.50;86.50
47338;DHT22;33069;51.970;5.892;2024-01-15T15:56:57;1.50;87.00